sensor_id;sensor_type;location;lat;lon;timestamp;temperature;humidity
22185;DHT22;11258;52.516;13.318;2023-02-11T00:01:46;4.20;99.90
22185;DHT22;11258;52.516;13.318;2023-02-11T00:04:11;4.20;99.90
22185;DHT22;11258;52.516;13.318;2023-02-11T00:06:37;4.20;99.90
22185;DHT22;11258;52.516;13.318;2023-02-11T00:09:03;4.20;99.90
22185;DHT22;11258;52.516;13.318;2023-02-11T00:11:29;4.20;99.90
22185;DHT22;11258;52.516;13.318;2023-02-11T00:13:59;4.20;99.90
22185;DHT22;11258;52.516;13.318;2023-02-11T00:16:26;4.20;99.90
22185;DHT22;11258;52.516;13.318;2023-02-11T00:18:51;4.20;99.90
22185;DHT22;11258;52.516;13.318;2023-02-11T00:21:21;4.30;99.90
22185;DHT22;11258;52.516;13.318;2023-02-11T00:23:47;4.20;99.90
22185;DHT22;11258;52.516;13.318;2023-02-11T00:26:24;4.20;99.90
22185;DHT22;11258;52.516;13.318;2023-02-11T00:28:51;4.20;99.90
22185;DHT22;11258;52.516;13.318;2023-02-11T00:31:19;4.30;99.90
22185;DHT22;11258;52.516;13.318;2023-02-11T00:33:45;4.30;99.90
22185;DHT22;11258;52.516;13.318;2023-02-11T00:36:18;4.30;99.90
22185;DHT22;11258;52.516;13.318;2023-02-11T00:38:44;4.40;99.90
22185;DHT22;11258;52.516;13.318;2023-02-11T00:41:11;4.40;99.90
22185;DHT22;11258;52.516;13.318;2023-02-11T00:43:38;4.40;99.90
22185;DHT22;11258;52.516;13.318;2023-02-11T00:46:04;4.40;99.90
22185;DHT22;11258;52.516;13.318;2023-02-11T00:48:29;4.40;99.90
22185;DHT22;11258;52.516;13.318;2023-02-11T00:50:56;4.40;99.90
22185;DHT22;11258;52.516;13.318;2023-02-11T00:53:21;4.50;99.90
22185;DHT22;11258;52.516;13.318;2023-02-11T00:55:47;4.50;99.90
22185;DHT22;11258;52.516;13.318;2023-02-11T00:58:13;4.50;99.90
22185;DHT22;11258;52.516;13.318;2023-02-11T01:00:38;4.50;99.90
22185;DHT22;11258;52.516;13.318;2023-02-11T01:03:04;4.50;99.90
22185;DHT22;11258;52.516;13.318;2023-02-11T01:05:30;4.60;99.90
22185;DHT22;11258;52.516;13.318;2023-02-11T01:07:55;4.60;99.90
22185;DHT22;11258;52.516;13.318;2023-02-11T01:10:21;4.60;99.90
22185;DHT22;11258;52.516;13.318;2023-02-11T01:12:47;4.60;99.90
22185;DHT22;11258;52.516;13.318;2023-02-11T01:15:14;4.60;99.90
22185;DHT22;11258;52.516;13.318;2023-02-11T01:17:40;4.60;99.90
22185;DHT22;11258;52.516;13.318;2023-02-11T01:20:07;4.60;99.90
22185;DHT22;11258;52.516;13.318;2023-02-11T01:22:33;4.60;99.90
22185;DHT22;11258;52.516;13.318;2023-02-11T01:25:04;4.60;99.90
22185;DHT22;11258;52.516;13.318;2023-02-11T01:27:30;4.60;99.90
22185;DHT22;11258;52.516;13.318;2023-02-11T01:29:55;4.60;99.90
22185;DHT22;11258;52.516;13.318;2023-02-11T01:32:21;4.60;99.90
22185;DHT22;11258;52.516;13.318;2023-02-11T01:34:47;4.60;99.90
22185;DHT22;11258;52.516;13.318;2023-02-11T01:37:12;4.50;99.90
22185;DHT22;11258;52.516;13.318;2023-02-11T01:39:38;4.60;99.90
22185;DHT22;11258;52.516;13.318;2023-02-11T01:42:04;4.60;99.90
22185;DHT22;11258;52.516;13.318;2023-02-11T01:44:35;4.50;99.90
22185;DHT22;11258;52.516;13.318;2023-02-11T01:47:02;4.60;99.90
22185;DHT22;11258;52.516;13.318;2023-02-11T01:49:32;4.60;99.90
22185;DHT22;11258;52.516;13.318;2023-02-11T01:52:05;4.60;99.90
22185;DHT22;11258;52.516;13.318;2023-02-11T01:54:41;4.60;99.90
22185;DHT22;11258;52.516;13.318;2023-02-11T01:57:30;4.60;99.90
22185;DHT22;11258;52.516;13.318;2023-02-11T02:00:08;4.60;99.90
22185;DHT22;11258;52.516;13.318;2023-02-11T02:03:04;4.70;99.90
22185;DHT22;11258;52.516;13.318;2023-02-11T02:05:54;4.70;99.90
22185;DHT22;11258;52.516;13.318;2023-02-11T02:11:30;4.80;99.90
22185;DHT22;11258;52.516;13.318;2023-02-11T02:13:56;4.80;99.90
22185;DHT22;11258;52.516;13.318;2023-02-11T02:16:25;4.80;99.90
22185;DHT22;11258;52.516;13.318;2023-02-11T02:36:08;4.90;99.90
22185;DHT22;11258;52.516;13.318;2023-02-11T02:39:13;5.00;99.90
22185;DHT22;11258;52.516;13.318;2023-02-11T02:41:31;5.00;99.90
22185;DHT22;11258;52.516;13.318;2023-02-11T02:43:57;4.90;99.90
22185;DHT22;11258;52.516;13.318;2023-02-11T02:46:31;4.90;99.90
22185;DHT22;11258;52.516;13.318;2023-02-11T02:48:58;5.00;99.90
22185;DHT22;11258;52.516;13.318;2023-02-11T02:57:18;5.00;99.90
22185;DHT22;11258;52.516;13.318;2023-02-11T03:02:30;5.00;99.90
22185;DHT22;11258;52.516;13.318;2023-02-11T03:08:13;5.00;99.90
22185;DHT22;11258;52.516;13.318;2023-02-11T03:10:48;5.00;99.90
22185;DHT22;11258;52.516;13.318;2023-02-11T03:13:15;5.00;99.90
22185;DHT22;11258;52.516;13.318;2023-02-11T03:15:45;5.10;99.90
22185;DHT22;11258;52.516;13.318;2023-02-11T03:18:14;5.10;99.90
22185;DHT22;11258;52.516;13.318;2023-02-11T03:20:44;5.00;99.90
22185;DHT22;11258;52.516;13.318;2023-02-11T03:23:29;5.10;99.90
22185;DHT22;11258;52.516;13.318;2023-02-11T03:26:03;5.00;99.90
22185;DHT22;11258;52.516;13.318;2023-02-11T03:28:36;5.10;99.90
22185;DHT22;11258;52.516;13.318;2023-02-11T03:31:17;5.10;99.90
22185;DHT22;11258;52.516;13.318;2023-02-11T03:36:18;5.10;99.90
22185;DHT22;11258;52.516;13.318;2023-02-11T03:38:48;5.10;99.90
22185;DHT22;11258;52.516;13.318;2023-02-11T03:41:16;5.10;99.90
22185;DHT22;11258;52.516;13.318;2023-02-11T03:43:49;5.10;99.90
22185;DHT22;11258;52.516;13.318;2023-02-11T03:46:18;5.10;99.90
22185;DHT22;11258;52.516;13.318;2023-02-11T03:48:51;5.20;99.90
22185;DHT22;11258;52.516;13.318;2023-02-11T03:51:21;5.10;99.90
22185;DHT22;11258;52.516;13.318;2023-02-11T03:53:48;5.10;99.90
22185;DHT22;11258;52.516;13.318;2023-02-11T03:56:20;5.10;99.90
22185;DHT22;11258;52.516;13.318;2023-02-11T03:58:48;5.20;99.90
22185;DHT22;11258;52.516;13.318;2023-02-11T04:01:14;5.10;99.90
22185;DHT22;11258;52.516;13.318;2023-02-11T04:03:39;5.20;99.90
22185;DHT22;11258;52.516;13.318;2023-02-11T04:06:05;5.10;99.90
22185;DHT22;11258;52.516;13.318;2023-02-11T04:08:31;5.20;99.90
22185;DHT22;11258;52.516;13.318;2023-02-11T04:10:57;5.10;99.90
22185;DHT22;11258;52.516;13.318;2023-02-11T04:13:23;5.20;99.90
22185;DHT22;11258;52.516;13.318;2023-02-11T04:15:48;5.20;99.90
22185;DHT22;11258;52.516;13.318;2023-02-11T04:18:14;5.20;99.90
22185;DHT22;11258;52.516;13.318;2023-02-11T04:20:40;5.20;99.90
22185;DHT22;11258;52.516;13.318;2023-02-11T04:23:05;5.30;99.90
22185;DHT22;11258;52.516;13.318;2023-02-11T04:25:31;5.20;99.90
22185;DHT22;11258;52.516;13.318;2023-02-11T04:27:56;5.30;99.90
22185;DHT22;11258;52.516;13.318;2023-02-11T04:30:22;5.30;99.90
22185;DHT22;11258;52.516;13.318;2023-02-11T04:32:47;5.30;99.90
22185;DHT22;11258;52.516;13.318;2023-02-11T04:35:13;5.30;99.90
22185;DHT22;11258;52.516;13.318;2023-02-11T04:37:39;5.30;99.90
22185;DHT22;11258;52.516;13.318;2023-02-11T04:40:05;5.30;99.90
22185;DHT22;11258;52.516;13.318;2023-02-11T04:42:31;5.30;99.90
22185;DHT22;11258;52.516;13.318;2023-02-11T04:44:56;5.20;99.90
22185;DHT22;11258;52.516;13.318;2023-02-11T04:47:22;5.30;99.90
22185;DHT22;11258;52.516;13.318;2023-02-11T04:49:47;5.20;99.90
22185;DHT22;11258;52.516;13.318;2023-02-11T04:52:13;5.20;99.90
22185;DHT22;11258;52.516;13.318;2023-02-11T04:54:39;5.20;99.90
22185;DHT22;11258;52.516;13.318;2023-02-11T04:57:05;5.20;99.90
22185;DHT22;11258;52.516;13.318;2023-02-11T04:59:30;5.20;99.90
22185;DHT22;11258;52.516;13.318;2023-02-11T05:01:56;5.20;99.90
22185;DHT22;11258;52.516;13.318;2023-02-11T05:04:22;5.30;99.90
22185;DHT22;11258;52.516;13.318;2023-02-11T05:06:47;5.20;99.90
22185;DHT22;11258;52.516;13.318;2023-02-11T05:09:13;5.30;99.90
22185;DHT22;11258;52.516;13.318;2023-02-11T05:11:39;5.30;99.90
22185;DHT22;11258;52.516;13.318;2023-02-11T05:14:08;5.30;99.90
22185;DHT22;11258;52.516;13.318;2023-02-11T05:16:34;5.30;99.90
22185;DHT22;11258;52.516;13.318;2023-02-11T05:18:59;5.30;99.90
22185;DHT22;11258;52.516;13.318;2023-02-11T05:21:25;5.30;99.90
22185;DHT22;11258;52.516;13.318;2023-02-11T05:23:51;5.30;99.90
22185;DHT22;11258;52.516;13.318;2023-02-11T05:26:17;5.30;99.90
22185;DHT22;11258;52.516;13.318;2023-02-11T05:28:43;5.30;99.90
22185;DHT22;11258;52.516;13.318;2023-02-11T05:31:09;5.30;99.90
22185;DHT22;11258;52.516;13.318;2023-02-11T05:33:35;5.30;99.90
22185;DHT22;11258;52.516;13.318;2023-02-11T05:36:04;5.30;99.90
22185;DHT22;11258;52.516;13.318;2023-02-11T05:38:30;5.30;99.90
22185;DHT22;11258;52.516;13.318;2023-02-11T05:40:56;5.30;99.90
22185;DHT22;11258;52.516;13.318;2023-02-11T05:43:22;5.30;99.90
22185;DHT22;11258;52.516;13.318;2023-02-11T05:45:47;5.30;99.90
22185;DHT22;11258;52.516;13.318;2023-02-11T05:48:13;5.30;99.90
22185;DHT22;11258;52.516;13.318;2023-02-11T05:50:39;5.20;99.90
22185;DHT22;11258;52.516;13.318;2023-02-11T05:53:05;5.30;99.90
22185;DHT22;11258;52.516;13.318;2023-02-11T05:55:31;5.30;99.90
22185;DHT22;11258;52.516;13.318;2023-02-11T05:57:57;5.30;99.90
22185;DHT22;11258;52.516;13.318;2023-02-11T06:00:23;5.30;99.90
22185;DHT22;11258;52.516;13.318;2023-02-11T06:02:49;5.30;99.90
22185;DHT22;11258;52.516;13.318;2023-02-11T06:05:15;5.30;99.90
22185;DHT22;11258;52.516;13.318;2023-02-11T06:07:40;5.30;99.90
22185;DHT22;11258;52.516;13.318;2023-02-11T06:10:07;5.30;99.90
22185;DHT22;11258;52.516;13.318;2023-02-11T06:12:34;5.40;99.90
22185;DHT22;11258;52.516;13.318;2023-02-11T06:15:00;5.40;99.90
22185;DHT22;11258;52.516;13.318;2023-02-11T06:17:25;5.40;99.90
22185;DHT22;11258;52.516;13.318;2023-02-11T06:19:53;5.40;99.90
22185;DHT22;11258;52.516;13.318;2023-02-11T06:22:18;5.40;99.90
22185;DHT22;11258;52.516;13.318;2023-02-11T06:24:44;5.40;99.90
22185;DHT22;11258;52.516;13.318;2023-02-11T06:27:09;5.40;99.90
22185;DHT22;11258;52.516;13.318;2023-02-11T06:29:35;5.40;99.90
22185;DHT22;11258;52.516;13.318;2023-02-11T06:32:01;5.40;99.90
22185;DHT22;11258;52.516;13.318;2023-02-11T06:34:26;5.50;99.90
22185;DHT22;11258;52.516;13.318;2023-02-11T06:36:52;5.50;99.90
22185;DHT22;11258;52.516;13.318;2023-02-11T06:39:17;5.50;99.90
22185;DHT22;11258;52.516;13.318;2023-02-11T06:41:43;5.50;99.90
22185;DHT22;11258;52.516;13.318;2023-02-11T06:44:09;5.50;99.90
22185;DHT22;11258;52.516;13.318;2023-02-11T06:46:34;5.60;99.90
22185;DHT22;11258;52.516;13.318;2023-02-11T06:49:00;5.50;99.90
22185;DHT22;11258;52.516;13.318;2023-02-11T06:51:25;5.60;99.90
22185;DHT22;11258;52.516;13.318;2023-02-11T06:53:51;5.50;99.90
22185;DHT22;11258;52.516;13.318;2023-02-11T06:56:19;5.60;99.90
22185;DHT22;11258;52.516;13.318;2023-02-11T06:58:46;5.50;99.90
22185;DHT22;11258;52.516;13.318;2023-02-11T07:01:13;5.50;99.90
22185;DHT22;11258;52.516;13.318;2023-02-11T07:03:42;5.60;99.90
22185;DHT22;11258;52.516;13.318;2023-02-11T07:06:15;5.60;99.90
22185;DHT22;11258;52.516;13.318;2023-02-11T07:08:41;5.60;99.90
22185;DHT22;11258;52.516;13.318;2023-02-11T07:11:12;5.60;99.90
22185;DHT22;11258;52.516;13.318;2023-02-11T07:13:38;5.70;99.90
22185;DHT22;11258;52.516;13.318;2023-02-11T07:16:06;5.70;99.90
22185;DHT22;11258;52.516;13.318;2023-02-11T07:18:32;5.70;99.90
22185;DHT22;11258;52.516;13.318;2023-02-11T07:20:58;5.80;99.90
22185;DHT22;11258;52.516;13.318;2023-02-11T07:23:23;5.80;99.90
22185;DHT22;11258;52.516;13.318;2023-02-11T07:25:49;5.80;99.90
22185;DHT22;11258;52.516;13.318;2023-02-11T07:28:14;5.80;99.90
22185;DHT22;11258;52.516;13.318;2023-02-11T07:30:40;5.90;99.90
22185;DHT22;11258;52.516;13.318;2023-02-11T07:33:06;5.90;99.90
22185;DHT22;11258;52.516;13.318;2023-02-11T07:35:31;6.00;99.90
22185;DHT22;11258;52.516;13.318;2023-02-11T07:37:57;6.00;99.90
22185;DHT22;11258;52.516;13.318;2023-02-11T07:40:22;6.00;99.90
22185;DHT22;11258;52.516;13.318;2023-02-11T07:42:48;6.10;99.90
22185;DHT22;11258;52.516;13.318;2023-02-11T07:45:13;6.10;99.90
22185;DHT22;11258;52.516;13.318;2023-02-11T07:47:39;6.10;99.90
22185;DHT22;11258;52.516;13.318;2023-02-11T07:50:07;6.20;99.90
22185;DHT22;11258;52.516;13.318;2023-02-11T07:52:33;6.20;99.90
22185;DHT22;11258;52.516;13.318;2023-02-11T07:54:59;6.20;99.90
22185;DHT22;11258;52.516;13.318;2023-02-11T07:57:24;6.20;99.90
22185;DHT22;11258;52.516;13.318;2023-02-11T07:59:50;6.20;99.90
22185;DHT22;11258;52.516;13.318;2023-02-11T08:02:17;6.20;99.90
22185;DHT22;11258;52.516;13.318;2023-02-11T08:04:45;6.20;99.90
22185;DHT22;11258;52.516;13.318;2023-02-11T08:07:14;6.20;99.90
22185;DHT22;11258;52.516;13.318;2023-02-11T08:09:40;6.20;99.90
22185;DHT22;11258;52.516;13.318;2023-02-11T08:12:05;6.20;99.90
22185;DHT22;11258;52.516;13.318;2023-02-11T08:14:31;6.20;99.90
22185;DHT22;11258;52.516;13.318;2023-02-11T08:16:57;6.20;99.90
22185;DHT22;11258;52.516;13.318;2023-02-11T08:19:23;6.30;99.90
22185;DHT22;11258;52.516;13.318;2023-02-11T08:21:48;6.30;99.90
22185;DHT22;11258;52.516;13.318;2023-02-11T08:24:15;6.40;99.90
22185;DHT22;11258;52.516;13.318;2023-02-11T08:26:41;6.40;99.90
22185;DHT22;11258;52.516;13.318;2023-02-11T08:29:12;6.40;99.90
22185;DHT22;11258;52.516;13.318;2023-02-11T08:31:40;6.40;99.90
22185;DHT22;11258;52.516;13.318;2023-02-11T08:34:06;6.30;99.90
22185;DHT22;11258;52.516;13.318;2023-02-11T08:36:34;6.30;99.90
22185;DHT22;11258;52.516;13.318;2023-02-11T08:39:03;6.40;99.90
22185;DHT22;11258;52.516;13.318;2023-02-11T08:41:30;6.30;99.90
22185;DHT22;11258;52.516;13.318;2023-02-11T08:43:56;6.30;99.90
22185;DHT22;11258;52.516;13.318;2023-02-11T08:46:22;6.30;99.90
22185;DHT22;11258;52.516;13.318;2023-02-11T08:48:47;6.30;99.90
22185;DHT22;11258;52.516;13.318;2023-02-11T08:51:19;6.40;99.90
22185;DHT22;11258;52.516;13.318;2023-02-11T08:53:45;6.40;99.90
22185;DHT22;11258;52.516;13.318;2023-02-11T08:56:12;6.30;99.90
22185;DHT22;11258;52.516;13.318;2023-02-11T08:58:38;6.40;99.90
22185;DHT22;11258;52.516;13.318;2023-02-11T09:01:20;6.40;99.90
22185;DHT22;11258;52.516;13.318;2023-02-11T09:03:46;6.40;99.90
22185;DHT22;11258;52.516;13.318;2023-02-11T09:06:12;6.40;99.90
22185;DHT22;11258;52.516;13.318;2023-02-11T09:08:40;6.40;99.90
22185;DHT22;11258;52.516;13.318;2023-02-11T09:11:07;6.40;99.90
22185;DHT22;11258;52.516;13.318;2023-02-11T09:13:33;6.40;99.90
22185;DHT22;11258;52.516;13.318;2023-02-11T09:16:00;6.40;99.90
22185;DHT22;11258;52.516;13.318;2023-02-11T09:18:26;6.40;99.90
22185;DHT22;11258;52.516;13.318;2023-02-11T09:20:57;6.50;99.90
22185;DHT22;11258;52.516;13.318;2023-02-11T09:23:25;6.50;99.90
22185;DHT22;11258;52.516;13.318;2023-02-11T09:25:51;6.50;99.90
22185;DHT22;11258;52.516;13.318;2023-02-11T09:28:16;6.50;99.90
22185;DHT22;11258;52.516;13.318;2023-02-11T09:30:42;6.50;99.90
22185;DHT22;11258;52.516;13.318;2023-02-11T09:33:08;6.50;99.90
22185;DHT22;11258;52.516;13.318;2023-02-11T09:35:34;6.60;99.90
22185;DHT22;11258;52.516;13.318;2023-02-11T09:37:59;6.60;99.90
22185;DHT22;11258;52.516;13.318;2023-02-11T09:40:25;6.60;99.90
22185;DHT22;11258;52.516;13.318;2023-02-11T09:43:08;6.60;99.90
22185;DHT22;11258;52.516;13.318;2023-02-11T09:45:36;6.60;99.90
22185;DHT22;11258;52.516;13.318;2023-02-11T09:48:09;6.70;99.90
22185;DHT22;11258;52.516;13.318;2023-02-11T09:50:42;6.70;99.90
22185;DHT22;11258;52.516;13.318;2023-02-11T09:53:39;6.70;99.90
22185;DHT22;11258;52.516;13.318;2023-02-11T09:56:13;6.80;99.90
22185;DHT22;11258;52.516;13.318;2023-02-11T09:58:42;6.80;99.90
22185;DHT22;11258;52.516;13.318;2023-02-11T10:12:32;6.80;99.90
22185;DHT22;11258;52.516;13.318;2023-02-11T10:20:28;6.90;99.90
22185;DHT22;11258;52.516;13.318;2023-02-11T10:23:06;6.90;99.90
22185;DHT22;11258;52.516;13.318;2023-02-11T10:25:40;6.80;99.90
22185;DHT22;11258;52.516;13.318;2023-02-11T10:28:15;6.90;99.90
22185;DHT22;11258;52.516;13.318;2023-02-11T10:30:56;6.90;99.90
22185;DHT22;11258;52.516;13.318;2023-02-11T10:36:00;6.90;99.90
22185;DHT22;11258;52.516;13.318;2023-02-11T10:38:26;6.90;99.90
22185;DHT22;11258;52.516;13.318;2023-02-11T10:40:52;6.90;99.90
22185;DHT22;11258;52.516;13.318;2023-02-11T10:43:22;6.90;99.90
22185;DHT22;11258;52.516;13.318;2023-02-11T10:45:53;6.90;99.90
22185;DHT22;11258;52.516;13.318;2023-02-11T10:51:28;6.90;99.90
22185;DHT22;11258;52.516;13.318;2023-02-11T10:56:31;6.90;99.90
22185;DHT22;11258;52.516;13.318;2023-02-11T10:59:04;6.90;99.90
22185;DHT22;11258;52.516;13.318;2023-02-11T11:01:45;7.00;99.90
22185;DHT22;11258;52.516;13.318;2023-02-11T11:04:42;6.90;99.90
22185;DHT22;11258;52.516;13.318;2023-02-11T11:07:20;6.90;99.90
22185;DHT22;11258;52.516;13.318;2023-02-11T11:10:37;7.00;99.90
22185;DHT22;11258;52.516;13.318;2023-02-11T11:12:46;7.00;99.90
22185;DHT22;11258;52.516;13.318;2023-02-11T11:15:22;6.90;99.90
22185;DHT22;11258;52.516;13.318;2023-02-11T11:18:09;6.90;99.90
22185;DHT22;11258;52.516;13.318;2023-02-11T11:20:35;7.00;99.90
22185;DHT22;11258;52.516;13.318;2023-02-11T11:23:17;7.00;99.90
22185;DHT22;11258;52.516;13.318;2023-02-11T11:25:56;6.90;99.90
22185;DHT22;11258;52.516;13.318;2023-02-11T11:28:25;6.90;99.90
22185;DHT22;11258;52.516;13.318;2023-02-11T11:30:54;7.00;99.90
22185;DHT22;11258;52.516;13.318;2023-02-11T11:33:26;7.00;99.90
22185;DHT22;11258;52.516;13.318;2023-02-11T11:36:02;7.00;99.90
22185;DHT22;11258;52.516;13.318;2023-02-11T11:38:29;7.00;99.90
22185;DHT22;11258;52.516;13.318;2023-02-11T11:43:39;7.00;99.90
22185;DHT22;11258;52.516;13.318;2023-02-11T11:46:11;7.10;99.90
22185;DHT22;11258;52.516;13.318;2023-02-11T11:48:39;7.10;99.90
22185;DHT22;11258;52.516;13.318;2023-02-11T11:51:09;7.00;99.90
22185;DHT22;11258;52.516;13.318;2023-02-11T11:53:50;7.00;99.90
22185;DHT22;11258;52.516;13.318;2023-02-11T11:56:27;7.10;99.90
22185;DHT22;11258;52.516;13.318;2023-02-11T11:58:54;7.10;99.90
22185;DHT22;11258;52.516;13.318;2023-02-11T12:01:49;7.10;99.90
22185;DHT22;11258;52.516;13.318;2023-02-11T12:04:24;7.20;99.90
22185;DHT22;11258;52.516;13.318;2023-02-11T12:15:54;7.30;99.90
22185;DHT22;11258;52.516;13.318;2023-02-11T12:21:40;7.30;99.90
22185;DHT22;11258;52.516;13.318;2023-02-11T12:26:48;7.40;99.90
22185;DHT22;11258;52.516;13.318;2023-02-11T12:40:08;7.40;99.90
22185;DHT22;11258;52.516;13.318;2023-02-11T12:42:44;7.50;99.90
22185;DHT22;11258;52.516;13.318;2023-02-11T12:56:46;7.50;99.90
22185;DHT22;11258;52.516;13.318;2023-02-11T13:01:58;7.50;99.90
22185;DHT22;11258;52.516;13.318;2023-02-11T13:04:39;7.50;99.90
22185;DHT22;11258;52.516;13.318;2023-02-11T13:07:36;7.50;99.90
22185;DHT22;11258;52.516;13.318;2023-02-11T13:10:04;7.60;99.90
22185;DHT22;11258;52.516;13.318;2023-02-11T13:12:35;7.60;99.90
22185;DHT22;11258;52.516;13.318;2023-02-11T13:15:20;7.60;99.90
22185;DHT22;11258;52.516;13.318;2023-02-11T13:18:11;7.60;99.90
22185;DHT22;11258;52.516;13.318;2023-02-11T13:24:28;7.60;99.90
22185;DHT22;11258;52.516;13.318;2023-02-11T13:27:03;7.60;99.90
22185;DHT22;11258;52.516;13.318;2023-02-11T13:32:20;7.70;99.90
22185;DHT22;11258;52.516;13.318;2023-02-11T13:34:52;7.70;99.90
22185;DHT22;11258;52.516;13.318;2023-02-11T13:37:22;7.70;99.90
22185;DHT22;11258;52.516;13.318;2023-02-11T13:42:27;7.70;99.90
22185;DHT22;11258;52.516;13.318;2023-02-11T13:44:53;7.70;99.90
22185;DHT22;11258;52.516;13.318;2023-02-11T13:47:26;7.70;99.90
22185;DHT22;11258;52.516;13.318;2023-02-11T13:49:54;7.70;99.90
22185;DHT22;11258;52.516;13.318;2023-02-11T13:52:22;7.70;99.90
22185;DHT22;11258;52.516;13.318;2023-02-11T13:54:50;7.70;99.90
22185;DHT22;11258;52.516;13.318;2023-02-11T14:02:29;7.70;99.90
22185;DHT22;11258;52.516;13.318;2023-02-11T14:05:22;7.70;99.90
22185;DHT22;11258;52.516;13.318;2023-02-11T14:16:23;7.70;99.90
22185;DHT22;11258;52.516;13.318;2023-02-11T14:23:53;7.70;99.90
22185;DHT22;11258;52.516;13.318;2023-02-11T14:29:10;7.80;99.90
22185;DHT22;11258;52.516;13.318;2023-02-11T14:31:53;7.70;99.90
22185;DHT22;11258;52.516;13.318;2023-02-11T14:34:58;7.70;99.90
22185;DHT22;11258;52.516;13.318;2023-02-11T14:42:38;7.70;99.90
22185;DHT22;11258;52.516;13.318;2023-02-11T14:45:10;7.70;99.90
22185;DHT22;11258;52.516;13.318;2023-02-11T14:47:45;7.70;99.90
22185;DHT22;11258;52.516;13.318;2023-02-11T14:50:20;7.70;99.90
22185;DHT22;11258;52.516;13.318;2023-02-11T14:52:47;7.70;99.90
22185;DHT22;11258;52.516;13.318;2023-02-11T14:55:30;7.70;99.90
22185;DHT22;11258;52.516;13.318;2023-02-11T14:58:15;7.70;99.90
22185;DHT22;11258;52.516;13.318;2023-02-11T15:06:20;7.80;99.90
22185;DHT22;11258;52.516;13.318;2023-02-11T15:09:16;7.80;99.90
22185;DHT22;11258;52.516;13.318;2023-02-11T15:11:46;7.70;99.90
22185;DHT22;11258;52.516;13.318;2023-02-11T15:14:25;7.80;99.90
22185;DHT22;11258;52.516;13.318;2023-02-11T15:16:53;7.70;99.90
22185;DHT22;11258;52.516;13.318;2023-02-11T15:19:33;7.70;99.90
22185;DHT22;11258;52.516;13.318;2023-02-11T15:22:14;7.70;99.90
22185;DHT22;11258;52.516;13.318;2023-02-11T15:24:44;7.70;99.90
22185;DHT22;11258;52.516;13.318;2023-02-11T15:27:12;7.70;99.90
22185;DHT22;11258;52.516;13.318;2023-02-11T15:29:47;7.70;99.90
22185;DHT22;11258;52.516;13.318;2023-02-11T15:32:19;7.70;99.90
22185;DHT22;11258;52.516;13.318;2023-02-11T15:34:47;7.70;99.90
22185;DHT22;11258;52.516;13.318;2023-02-11T15:37:21;7.70;99.90
22185;DHT22;11258;52.516;13.318;2023-02-11T15:39:47;7.70;99.90
22185;DHT22;11258;52.516;13.318;2023-02-11T15:42:20;7.70;99.90
22185;DHT22;11258;52.516;13.318;2023-02-11T15:44:48;7.70;99.90
22185;DHT22;11258;52.516;13.318;2023-02-11T15:47:21;7.70;99.90
22185;DHT22;11258;52.516;13.318;2023-02-11T15:49:47;7.70;99.90
22185;DHT22;11258;52.516;13.318;2023-02-11T15:52:22;7.70;99.90
22185;DHT22;11258;52.516;13.318;2023-02-11T15:54:49;7.70;99.90
22185;DHT22;11258;52.516;13.318;2023-02-11T15:57:16;7.70;99.90
22185;DHT22;11258;52.516;13.318;2023-02-11T15:59:48;7.70;99.90
22185;DHT22;11258;52.516;13.318;2023-02-11T16:02:19;7.70;99.90
22185;DHT22;11258;52.516;13.318;2023-02-11T16:04:53;7.70;99.90
22185;DHT22;11258;52.516;13.318;2023-02-11T16:13:23;7.70;99.90
22185;DHT22;11258;52.516;13.318;2023-02-11T16:15:52;7.70;99.90
22185;DHT22;11258;52.516;13.318;2023-02-11T16:18:27;7.70;99.90
22185;DHT22;11258;52.516;13.318;2023-02-11T16:20:54;7.70;99.90
22185;DHT22;11258;52.516;13.318;2023-02-11T16:23:29;7.70;99.90
22185;DHT22;11258;52.516;13.318;2023-02-11T16:28:50;7.70;99.90
22185;DHT22;11258;52.516;13.318;2023-02-11T16:31:16;7.70;99.90
22185;DHT22;11258;52.516;13.318;2023-02-11T16:33:42;7.70;99.90
22185;DHT22;11258;52.516;13.318;2023-02-11T16:36:11;7.70;99.90
22185;DHT22;11258;52.516;13.318;2023-02-11T16:38:37;7.70;99.90
22185;DHT22;11258;52.516;13.318;2023-02-11T16:41:03;7.70;99.90
22185;DHT22;11258;52.516;13.318;2023-02-11T16:43:28;7.70;99.90
22185;DHT22;11258;52.516;13.318;2023-02-11T16:45:54;7.80;99.90
22185;DHT22;11258;52.516;13.318;2023-02-11T16:48:19;7.80;99.90
22185;DHT22;11258;52.516;13.318;2023-02-11T16:50:47;7.70;99.90
22185;DHT22;11258;52.516;13.318;2023-02-11T16:53:18;7.80;99.90
22185;DHT22;11258;52.516;13.318;2023-02-11T16:55:45;7.80;99.90
22185;DHT22;11258;52.516;13.318;2023-02-11T16:58:11;7.70;99.90
22185;DHT22;11258;52.516;13.318;2023-02-11T17:00:36;7.80;99.90
22185;DHT22;11258;52.516;13.318;2023-02-11T17:03:22;7.80;99.90
22185;DHT22;11258;52.516;13.318;2023-02-11T17:05:48;7.80;99.90
22185;DHT22;11258;52.516;13.318;2023-02-11T17:08:15;7.80;99.90
22185;DHT22;11258;52.516;13.318;2023-02-11T17:10:41;7.80;99.90
22185;DHT22;11258;52.516;13.318;2023-02-11T17:13:06;7.80;99.90
22185;DHT22;11258;52.516;13.318;2023-02-11T17:15:32;7.80;99.90
22185;DHT22;11258;52.516;13.318;2023-02-11T17:17:58;7.80;99.90
22185;DHT22;11258;52.516;13.318;2023-02-11T17:20:24;7.80;99.90
22185;DHT22;11258;52.516;13.318;2023-02-11T17:22:50;7.80;99.90
22185;DHT22;11258;52.516;13.318;2023-02-11T17:25:16;7.80;99.90
22185;DHT22;11258;52.516;13.318;2023-02-11T17:27:42;7.80;99.90
22185;DHT22;11258;52.516;13.318;2023-02-11T17:30:08;7.80;99.90
22185;DHT22;11258;52.516;13.318;2023-02-11T17:32:35;7.80;99.90
22185;DHT22;11258;52.516;13.318;2023-02-11T17:35:01;7.80;99.90
22185;DHT22;11258;52.516;13.318;2023-02-11T17:37:27;7.80;99.90
22185;DHT22;11258;52.516;13.318;2023-02-11T17:39:52;7.80;99.90
22185;DHT22;11258;52.516;13.318;2023-02-11T17:42:18;7.80;99.90
22185;DHT22;11258;52.516;13.318;2023-02-11T17:44:44;7.80;99.90
22185;DHT22;11258;52.516;13.318;2023-02-11T17:47:11;7.80;99.90
22185;DHT22;11258;52.516;13.318;2023-02-11T17:49:38;7.70;99.90
22185;DHT22;11258;52.516;13.318;2023-02-11T17:52:04;7.70;99.90
22185;DHT22;11258;52.516;13.318;2023-02-11T17:54:29;7.80;99.90
22185;DHT22;11258;52.516;13.318;2023-02-11T17:56:55;7.80;99.90
22185;DHT22;11258;52.516;13.318;2023-02-11T17:59:20;7.70;99.90
22185;DHT22;11258;52.516;13.318;2023-02-11T18:01:46;7.80;99.90
22185;DHT22;11258;52.516;13.318;2023-02-11T18:04:17;7.80;99.90
22185;DHT22;11258;52.516;13.318;2023-02-11T18:06:43;7.80;99.90
22185;DHT22;11258;52.516;13.318;2023-02-11T18:09:09;7.80;99.90
22185;DHT22;11258;52.516;13.318;2023-02-11T18:11:36;7.80;99.90
22185;DHT22;11258;52.516;13.318;2023-02-11T18:14:03;7.80;99.90
22185;DHT22;11258;52.516;13.318;2023-02-11T18:16:29;7.80;99.90